Time;durP1;ratioP1;P1;durP2;ratioP2;P2;SDS_P1;SDS_P2;PMS_P1;PMS_P2;Temp;Humidity;BMP_temperature;BMP_pressure;BME280_temperature;BME280_humidity;BME280_pressure;Samples;Min_cycle;Max_cycle;Signal;HPM_P1;HPM_P2
2022/06/29 00:00:51;;;;;;;8.48;5.25;;;17.20;99.90;;;;;;5016837;28;20468;-74
2022/06/29 00:03:17;;;;;;;10.75;5.60;;;17.10;99.90;;;;;;5015031;28;20033;-73
2022/06/29 00:05:42;;;;;;;7.50;5.07;;;17.20;99.90;;;;;;5016759;28;20453;-73
2022/06/29 00:08:08;;;;;;;8.10;4.47;;;17.10;99.90;;;;;;5015941;28;20042;-73
2022/06/29 00:10:35;;;;;;;7.25;4.60;;;17.10;99.90;;;;;;5016480;28;20038;-73
2022/06/29 00:13:01;;;;;;;7.55;4.80;;;17.10;99.90;;;;;;4999447;28;20131;-74
2022/06/29 00:15:27;;;;;;;7.43;4.53;;;17.10;99.90;;;;;;5016643;28;20440;-73
2022/06/29 00:17:52;;;;;;;7.10;5.03;;;17.10;99.90;;;;;;5015692;28;20054;-73
2022/06/29 00:20:18;;;;;;;6.18;4.90;;;17.00;99.90;;;;;;5016442;28;20045;-73
2022/06/29 00:22:45;;;;;;;9.75;5.22;;;17.00;99.90;;;;;;5015795;28;20056;-73
2022/06/29 00:25:11;;;;;;;7.82;4.90;;;17.00;99.90;;;;;;5016613;28;20042;-73
2022/06/29 00:27:38;;;;;;;9.05;4.88;;;17.00;99.90;;;;;;5015663;28;20049;-74
2022/06/29 00:30:05;;;;;;;9.63;5.25;;;17.00;99.90;;;;;;5016430;28;20077;-73
2022/06/29 00:32:31;;;;;;;9.70;4.75;;;17.00;99.90;;;;;;5016417;28;20603;-74
2022/06/29 00:34:57;;;;;;;7.85;4.88;;;16.90;99.90;;;;;;5016268;28;20133;-72
2022/06/29 00:37:23;;;;;;;9.25;4.93;;;16.90;99.90;;;;;;5015446;28;20042;-74
2022/06/29 00:39:48;;;;;;;7.53;4.45;;;16.90;99.90;;;;;;5016089;28;20053;-73
2022/06/29 00:42:14;;;;;;;8.32;5.07;;;16.90;99.90;;;;;;5016012;28;20129;-74
2022/06/29 00:44:40;;;;;;;11.65;5.03;;;16.90;99.90;;;;;;5015838;28;20460;-73
2022/06/29 00:47:06;;;;;;;8.63;4.72;;;17.00;99.90;;;;;;5015280;28;20104;-74
2022/06/29 00:49:33;;;;;;;8.55;5.00;;;17.00;99.90;;;;;;5015388;28;20050;-74
2022/06/29 00:52:09;;;;;;;6.47;4.68;;;16.90;99.90;;;;;;5015801;28;20120;-74
2022/06/29 00:54:38;;;;;;;7.85;5.00;;;16.80;99.90;;;;;;5015890;28;20052;-73
2022/06/29 00:57:08;;;;;;;8.80;4.88;;;16.90;99.90;;;;;;5014761;28;20440;-73
2022/06/29 00:59:42;;;;;;;7.13;4.85;;;16.90;99.90;;;;;;5016010;28;20056;-73
2022/06/29 01:02:07;;;;;;;8.13;5.03;;;16.80;99.90;;;;;;5015714;28;20057;-73
2022/06/29 01:04:33;;;;;;;9.35;4.80;;;16.90;99.90;;;;;;5015711;28;20045;-73
2022/06/29 01:06:58;;;;;;;7.65;5.03;;;16.80;99.90;;;;;;5014961;28;20117;-73
2022/06/29 01:09:24;;;;;;;6.82;4.50;;;16.80;99.90;;;;;;5015912;28;20054;-73
2022/06/29 01:11:51;;;;;;;7.65;4.60;;;16.80;99.90;;;;;;5015717;28;20053;-73
2022/06/29 01:14:16;;;;;;;8.57;4.93;;;16.80;99.90;;;;;;5015357;28;20049;-73
2022/06/29 01:16:42;;;;;;;8.45;4.50;;;16.80;99.90;;;;;;5014781;28;20049;-74
2022/06/29 01:19:08;;;;;;;9.15;5.07;;;16.70;99.90;;;;;;5015708;28;20045;-73
2022/06/29 01:21:39;;;;;;;7.53;4.88;;;16.80;99.90;;;;;;5015468;28;20511;-74
2022/06/29 01:24:05;;;;;;;8.43;4.93;;;16.80;99.90;;;;;;5013678;28;20037;-73
2022/06/29 01:26:30;;;;;;;8.95;5.05;;;16.70;99.90;;;;;;5015515;28;20061;-73
2022/06/29 01:28:56;;;;;;;10.57;4.90;;;16.70;99.90;;;;;;5014857;28;20049;-73
2022/06/29 01:31:21;;;;;;;5.82;5.07;;;16.70;99.90;;;;;;5015587;28;20072;-73
2022/06/29 01:33:48;;;;;;;8.82;5.15;;;16.60;99.90;;;;;;5014927;28;20064;-73
2022/06/29 01:36:16;;;;;;;8.32;5.25;;;16.60;99.90;;;;;;5015310;28;20045;-72
2022/06/29 01:38:42;;;;;;;9.13;4.60;;;16.60;99.90;;;;;;5015410;28;20064;-73
2022/06/29 01:41:10;;;;;;;9.30;4.60;;;16.70;99.90;;;;;;5015173;28;20448;-73
2022/06/29 01:43:37;;;;;;;6.20;5.00;;;16.60;99.90;;;;;;5014380;28;20456;-73
2022/06/29 01:46:03;;;;;;;7.47;4.65;;;16.60;99.90;;;;;;5015186;28;20120;-73
2022/06/29 01:48:28;;;;;;;6.47;4.63;;;16.60;99.90;;;;;;4998118;28;20050;-73
2022/06/29 01:50:54;;;;;;;6.13;4.63;;;16.60;99.90;;;;;;5015113;28;20038;-73
2022/06/29 01:53:20;;;;;;;7.55;4.75;;;16.60;99.90;;;;;;5014634;28;20053;-74
2022/06/29 01:55:46;;;;;;;11.55;5.18;;;16.50;99.90;;;;;;5015370;28;20045;-74
2022/06/29 01:58:13;;;;;;;7.47;5.47;;;16.60;99.90;;;;;;5014841;28;20042;-73
2022/06/29 02:00:38;;;;;;;8.90;5.38;;;16.60;99.90;;;;;;5014903;28;20046;-72
2022/06/29 02:03:04;;;;;;;10.10;5.10;;;16.60;99.90;;;;;;5014946;28;20042;-73
2022/06/29 02:05:29;;;;;;;11.18;4.82;;;16.60;99.90;;;;;;5017852;28;20337;-73
2022/06/29 02:07:55;;;;;;;8.93;4.72;;;16.60;99.90;;;;;;5026406;28;20038;-73
2022/06/29 02:10:20;;;;;;;7.75;4.45;;;16.60;99.90;;;;;;5037637;28;20406;-73
2022/06/29 02:12:46;;;;;;;9.18;4.88;;;16.70;99.90;;;;;;5038454;28;20180;-73
2022/06/29 02:15:12;;;;;;;8.50;5.18;;;16.70;99.90;;;;;;5020999;28;20151;-73
2022/06/29 02:17:37;;;;;;;10.23;5.35;;;16.70;99.90;;;;;;5019030;28;20129;-73
2022/06/29 02:20:04;;;;;;;8.55;4.93;;;16.60;99.90;;;;;;5018340;28;20060;-72
2022/06/29 02:22:30;;;;;;;10.10;5.32;;;16.70;99.90;;;;;;5018908;28;20056;-73
2022/06/29 02:24:55;;;;;;;5.30;4.80;;;16.70;99.90;;;;;;5018055;28;20046;-73
2022/06/29 02:27:21;;;;;;;9.60;5.50;;;16.70;99.90;;;;;;5018529;28;20356;-72
2022/06/29 02:29:47;;;;;;;7.30;5.25;;;16.70;99.90;;;;;;5018504;28;20104;-73
2022/06/29 02:34:57;;;;;;;8.30;5.47;;;16.70;99.90;;;;;;5018074;28;20049;-73
2022/06/29 02:37:22;;;;;;;7.95;4.88;;;16.70;99.90;;;;;;5018561;28;20052;-73
2022/06/29 02:39:48;;;;;;;7.70;5.55;;;16.70;99.90;;;;;;5018355;28;20041;-73
2022/06/29 02:42:14;;;;;;;7.93;5.38;;;16.70;99.90;;;;;;5017604;28;20041;-74
2022/06/29 02:44:40;;;;;;;8.52;5.47;;;16.70;99.90;;;;;;5027180;28;20122;-74
2022/06/29 02:47:07;;;;;;;8.40;5.80;;;16.70;99.90;;;;;;5038163;28;20440;-73
2022/06/29 02:49:32;;;;;;;9.15;5.57;;;16.70;99.90;;;;;;5037413;28;20073;-73
2022/06/29 02:51:58;;;;;;;7.85;4.80;;;16.60;99.90;;;;;;5034341;28;20434;-72
2022/06/29 02:54:24;;;;;;;11.13;5.57;;;16.60;99.90;;;;;;5018099;28;20046;-74
2022/06/29 02:56:50;;;;;;;10.65;5.07;;;16.60;99.90;;;;;;5018048;28;20057;-72
2022/06/29 02:59:15;;;;;;;8.30;5.85;;;16.60;99.90;;;;;;5018038;28;20057;-73
2022/06/29 03:01:41;;;;;;;9.48;5.90;;;16.60;99.90;;;;;;5017365;28;20061;-74
2022/06/29 03:04:07;;;;;;;8.15;5.40;;;16.60;99.90;;;;;;4997700;28;20050;-73
2022/06/29 03:06:32;;;;;;;7.65;5.22;;;16.60;99.90;;;;;;4998589;28;20357;-73
2022/06/29 03:08:58;;;;;;;9.07;5.82;;;16.60;99.90;;;;;;4981271;28;20128;-73
2022/06/29 03:11:23;;;;;;;9.77;5.88;;;16.60;99.90;;;;;;4998308;28;20038;-74
2022/06/29 03:13:49;;;;;;;9.27;6.18;;;16.50;99.90;;;;;;5014963;28;20042;-74
2022/06/29 03:16:15;;;;;;;6.78;5.03;;;16.50;99.90;;;;;;5017655;28;20034;-73
2022/06/29 03:18:40;;;;;;;9.68;6.15;;;16.50;99.90;;;;;;5017644;28;20105;-74
2022/06/29 03:21:06;;;;;;;9.18;5.70;;;16.40;99.90;;;;;;5017413;28;20034;-72
2022/06/29 03:23:32;;;;;;;9.88;6.40;;;16.50;99.90;;;;;;5017217;28;20152;-73
2022/06/29 03:25:58;;;;;;;7.68;5.20;;;16.40;99.90;;;;;;5017475;28;20050;-73
2022/06/29 03:28:23;;;;;;;9.55;5.47;;;16.40;99.90;;;;;;5017400;28;20081;-73
2022/06/29 03:30:49;;;;;;;7.60;5.30;;;16.40;99.90;;;;;;5017499;28;20453;-73
2022/06/29 03:33:14;;;;;;;12.95;5.78;;;16.40;99.90;;;;;;5007447;28;20058;-72
2022/06/29 03:35:40;;;;;;;7.93;5.70;;;16.30;99.90;;;;;;4998088;28;20054;-73
2022/06/29 03:38:06;;;;;;;7.25;5.90;;;16.40;99.90;;;;;;4997971;28;20117;-74
2022/06/29 03:40:31;;;;;;;6.38;5.35;;;16.40;99.90;;;;;;4997489;28;20113;-73
2022/06/29 03:42:57;;;;;;;9.40;5.82;;;16.40;99.90;;;;;;4996649;28;20035;-73
2022/06/29 03:45:23;;;;;;;8.60;5.10;;;16.40;99.90;;;;;;4997647;28;20097;-73
2022/06/29 03:47:49;;;;;;;11.18;6.53;;;16.40;99.90;;;;;;4997751;28;20121;-73
2022/06/29 03:50:15;;;;;;;14.80;6.45;;;16.40;99.90;;;;;;4997544;28;20050;-73
2022/06/29 03:52:41;;;;;;;6.75;5.20;;;16.40;99.90;;;;;;4996871;28;20125;-73
2022/06/29 03:55:07;;;;;;;8.10;6.45;;;16.40;99.90;;;;;;4997395;28;20104;-73
2022/06/29 03:57:33;;;;;;;12.13;5.90;;;16.40;99.90;;;;;;4997341;28;20044;-74
2022/06/29 03:59:59;;;;;;;9.85;5.97;;;16.40;99.90;;;;;;4997698;28;20053;-73
2022/06/29 04:02:25;;;;;;;9.05;6.65;;;16.40;99.90;;;;;;4996647;28;20038;-73
2022/06/29 04:04:53;;;;;;;10.52;6.13;;;16.50;99.90;;;;;;4997316;28;20474;-73
2022/06/29 04:07:19;;;;;;;9.82;6.18;;;16.40;99.90;;;;;;4997262;28;20057;-73
2022/06/29 04:09:44;;;;;;;6.57;5.30;;;16.40;99.90;;;;;;4997042;28;20042;-73
2022/06/29 04:12:10;;;;;;;8.20;5.55;;;16.50;99.90;;;;;;4996180;28;20382;-73
2022/06/29 04:14:36;;;;;;;7.80;5.40;;;16.60;99.90;;;;;;4996741;28;20449;-73
2022/06/29 04:17:01;;;;;;;7.82;5.90;;;16.60;99.90;;;;;;4997083;28;20039;-73
2022/06/29 04:19:27;;;;;;;6.15;5.32;;;16.60;99.90;;;;;;4997000;28;20042;-73
2022/06/29 04:21:53;;;;;;;12.10;5.95;;;16.60;99.90;;;;;;4996387;28;20057;-73
2022/06/29 04:24:19;;;;;;;7.63;6.10;;;16.70;99.90;;;;;;4996722;28;20073;-73
2022/06/29 04:26:45;;;;;;;7.85;5.93;;;16.70;99.90;;;;;;4995124;28;20086;-73
2022/06/29 04:29:11;;;;;;;7.13;5.90;;;16.70;99.90;;;;;;4996779;28;20084;-73
2022/06/29 04:31:36;;;;;;;7.63;6.20;;;16.70;99.90;;;;;;4996154;28;20039;-73
2022/06/29 04:34:03;;;;;;;7.95;5.90;;;16.70;99.90;;;;;;5012336;28;20139;-73
2022/06/29 04:36:29;;;;;;;8.07;5.93;;;16.70;99.90;;;;;;5015823;28;20121;-73
2022/06/29 04:38:55;;;;;;;6.55;5.50;;;16.90;99.90;;;;;;5015592;28;20046;-73
2022/06/29 04:41:21;;;;;;;10.73;5.60;;;16.70;99.90;;;;;;5016141;28;20076;-74
2022/06/29 04:43:48;;;;;;;6.88;5.80;;;16.90;99.90;;;;;;5016248;28;20045;-73
2022/06/29 04:46:20;;;;;;;5.75;5.03;;;16.90;99.90;;;;;;5015468;28;20146;-73
2022/06/29 04:48:49;;;;;;;8.60;5.70;;;16.90;99.90;;;;;;5015989;28;20045;-74
2022/06/29 04:51:18;;;;;;;7.20;5.72;;;16.90;99.90;;;;;;5015317;28;20116;-74
2022/06/29 04:53:47;;;;;;;7.35;5.30;;;17.00;99.90;;;;;;5015806;28;20056;-74
2022/06/29 04:56:16;;;;;;;6.65;5.53;;;17.00;99.90;;;;;;5014259;28;20046;-73
2022/06/29 04:58:42;;;;;;;7.65;5.63;;;16.90;99.90;;;;;;5012367;28;20061;-73
2022/06/29 05:01:08;;;;;;;15.13;5.25;;;16.90;99.90;;;;;;5015347;28;20073;-73
2022/06/29 05:03:34;;;;;;;8.13;5.20;;;16.90;99.90;;;;;;5014679;28;20439;-73
2022/06/29 05:06:00;;;;;;;7.63;5.25;;;16.90;99.90;;;;;;5015576;28;20042;-73
2022/06/29 05:08:25;;;;;;;10.20;6.03;;;17.00;99.90;;;;;;5015744;28;20380;-73
2022/06/29 05:10:51;;;;;;;9.63;6.15;;;16.90;99.90;;;;;;5015731;28;20046;-74
2022/06/29 05:13:17;;;;;;;8.57;6.00;;;16.90;99.90;;;;;;5013917;28;20472;-73
2022/06/29 05:15:42;;;;;;;8.88;5.32;;;17.00;99.90;;;;;;5015803;28;20053;-74
2022/06/29 05:18:08;;;;;;;7.28;5.93;;;17.00;99.90;;;;;;5015671;28;20166;-74
2022/06/29 05:20:33;;;;;;;9.30;5.53;;;17.00;99.90;;;;;;5015314;28;20357;-73
2022/06/29 05:22:59;;;;;;;9.25;6.03;;;17.00;99.90;;;;;;4998178;28;20061;-73
2022/06/29 05:25:25;;;;;;;9.75;5.85;;;17.10;99.90;;;;;;5007579;28;20053;-73
2022/06/29 05:27:50;;;;;;;7.18;6.13;;;17.10;99.90;;;;;;5015025;28;20408;-70
2022/06/29 05:30:16;;;;;;;7.60;6.22;;;17.10;99.90;;;;;;5014791;28;20096;-70
2022/06/29 05:32:42;;;;;;;7.65;5.95;;;17.10;99.90;;;;;;5014914;28;20388;-70
2022/06/29 05:35:08;;;;;;;7.55;5.28;;;17.20;99.90;;;;;;5015221;28;20057;-72
2022/06/29 05:37:34;;;;;;;8.07;6.38;;;17.20;99.90;;;;;;5015165;28;20129;-71
2022/06/29 05:40:00;;;;;;;7.55;5.38;;;17.20;99.90;;;;;;5015207;28;20133;-69
2022/06/29 05:42:26;;;;;;;7.13;5.40;;;17.20;99.90;;;;;;4996795;28;20108;-74
2022/06/29 05:44:52;;;;;;;8.60;6.30;;;17.30;99.90;;;;;;5015057;28;20046;-71
2022/06/29 05:47:18;;;;;;;9.15;6.30;;;17.30;99.90;;;;;;4996816;28;20045;-69
2022/06/29 05:49:43;;;;;;;8.60;6.03;;;17.30;99.90;;;;;;5014100;28;20045;-72
2022/06/29 05:52:09;;;;;;;7.68;5.40;;;17.30;99.90;;;;;;5015042;28;20041;-70
2022/06/29 05:54:35;;;;;;;8.38;5.32;;;17.40;99.90;;;;;;5014903;28;20099;-70
2022/06/29 05:57:00;;;;;;;8.70;6.07;;;17.40;99.90;;;;;;5015322;28;20107;-70
2022/06/29 05:59:26;;;;;;;9.05;6.07;;;17.40;99.90;;;;;;5013271;28;20460;-70
2022/06/29 06:01:53;;;;;;;8.02;6.25;;;17.50;99.90;;;;;;5014938;28;20141;-71
2022/06/29 06:04:19;;;;;;;9.15;5.72;;;17.50;99.90;;;;;;4997409;28;20081;-71
2022/06/29 06:06:44;;;;;;;9.80;6.07;;;17.60;99.90;;;;;;5014827;28;20136;-70
2022/06/29 06:09:10;;;;;;;9.82;6.90;;;17.60;99.90;;;;;;5014339;28;20042;-70
2022/06/29 06:11:36;;;;;;;10.13;5.93;;;17.70;99.90;;;;;;5014719;28;20053;-70
2022/06/29 06:14:02;;;;;;;8.32;6.03;;;17.70;99.90;;;;;;5015141;28;20542;-70
2022/06/29 06:16:28;;;;;;;12.10;6.00;;;17.80;99.90;;;;;;5014827;28;20046;-70
2022/06/29 06:18:53;;;;;;;7.20;5.50;;;17.90;99.90;;;;;;5013908;28;20045;-69
2022/06/29 06:21:19;;;;;;;9.13;5.75;;;17.90;99.90;;;;;;5014658;28;20093;-70
2022/06/29 06:23:45;;;;;;;9.18;6.00;;;17.90;99.90;;;;;;5014609;28;20439;-72
2022/06/29 06:26:10;;;;;;;8.10;6.07;;;18.00;99.90;;;;;;5014771;28;20042;-70
2022/06/29 06:28:36;;;;;;;13.52;6.38;;;18.20;99.90;;;;;;5014083;28;20057;-71
2022/06/29 06:31:01;;;;;;;9.93;6.57;;;18.20;99.90;;;;;;5014808;28;20578;-71
2022/06/29 06:33:27;;;;;;;7.65;5.80;;;18.30;99.90;;;;;;5014711;28;20054;-70
2022/06/29 06:35:53;;;;;;;7.82;5.75;;;18.40;99.90;;;;;;5014624;28;20475;-70
2022/06/29 06:38:18;;;;;;;5.82;5.22;;;18.40;99.90;;;;;;5013997;28;20048;-70
2022/06/29 06:43:28;;;;;;;10.45;5.53;;;18.60;99.90;;;;;;5014628;28;20050;-70
2022/06/29 06:45:53;;;;;;;6.22;4.97;;;18.70;99.90;;;;;;5014599;28;20049;-71
2022/06/29 06:48:19;;;;;;;10.60;6.30;;;18.90;99.90;;;;;;5013241;28;20042;-71
2022/06/29 06:50:45;;;;;;;7.03;5.28;;;18.90;99.90;;;;;;5014361;28;20038;-71
2022/06/29 06:53:11;;;;;;;7.20;5.50;;;19.10;99.90;;;;;;5014714;28;20464;-70
2022/06/29 06:55:36;;;;;;;10.02;5.00;;;19.20;99.90;;;;;;5016082;28;20119;-71
2022/06/29 06:58:02;;;;;;;6.60;4.88;;;19.30;99.90;;;;;;5017572;28;20117;-70
2022/06/29 07:00:29;;;;;;;7.95;5.07;;;19.40;99.90;;;;;;5018039;28;20360;-72
2022/06/29 07:02:55;;;;;;;7.35;4.82;;;19.50;99.90;;;;;;5017747;28;20357;-71
2022/06/29 07:05:20;;;;;;;8.50;5.03;;;19.70;99.90;;;;;;5017960;28;20136;-70
2022/06/29 07:07:46;;;;;;;6.20;4.60;;;19.80;99.90;;;;;;5017056;28;20129;-71
2022/06/29 07:10:12;;;;;;;6.70;4.60;;;19.90;99.90;;;;;;5033078;28;20042;-71
2022/06/29 07:12:38;;;;;;;5.90;4.63;;;20.00;99.90;;;;;;5037734;28;20088;-72
2022/06/29 07:15:04;;;;;;;7.80;4.93;;;20.20;99.90;;;;;;5037718;28;20037;-72
2022/06/29 07:17:29;;;;;;;5.80;4.00;;;20.30;99.90;;;;;;5037330;28;20038;-72
2022/06/29 07:19:55;;;;;;;6.82;3.90;;;20.40;99.90;;;;;;5017987;28;20379;-71
2022/06/29 07:22:21;;;;;;;8.60;4.93;;;20.50;99.90;;;;;;5017390;28;20120;-71
2022/06/29 07:24:46;;;;;;;6.63;3.53;;;20.60;99.90;;;;;;5017454;28;20054;-71
2022/06/29 07:27:12;;;;;;;6.53;3.30;;;20.70;99.90;;;;;;5017707;28;20124;-70
2022/06/29 07:29:38;;;;;;;5.80;3.30;;;20.80;99.90;;;;;;5016478;28;20465;-71
2022/06/29 07:32:04;;;;;;;6.63;3.38;;;21.00;99.90;;;;;;5017267;28;20400;-71
2022/06/29 07:34:30;;;;;;;4.70;3.03;;;21.20;99.90;;;;;;4999539;28;20149;-70
2022/06/29 07:36:56;;;;;;;4.80;2.90;;;21.30;99.90;;;;;;5017515;28;20089;-72
2022/06/29 07:39:21;;;;;;;6.18;3.10;;;21.40;99.90;;;;;;5016070;28;20356;-71
2022/06/29 07:41:47;;;;;;;5.75;2.90;;;21.50;99.90;;;;;;5000000;28;20431;-71
2022/06/29 07:44:12;;;;;;;6.65;3.13;;;21.60;99.90;;;;;;5017209;28;20045;-71
2022/06/29 07:46:38;;;;;;;4.50;3.03;;;21.70;99.90;;;;;;5017069;28;20052;-72
2022/06/29 07:49:04;;;;;;;3.58;2.75;;;21.80;99.90;;;;;;5016746;28;20121;-73
2022/06/29 07:51:29;;;;;;;4.30;2.70;;;21.80;99.90;;;;;;5017062;28;20433;-71
2022/06/29 07:53:55;;;;;;;7.78;3.63;;;21.90;99.90;;;;;;5017058;28;20041;-72
2022/06/29 07:56:20;;;;;;;4.97;3.00;;;21.90;99.90;;;;;;5016993;28;20456;-70
2022/06/29 07:58:46;;;;;;;6.65;2.95;;;22.20;99.90;;;;;;5016361;28;20046;-70
2022/06/29 08:01:12;;;;;;;5.40;3.28;;;22.20;99.90;;;;;;5016229;28;20050;-72
2022/06/29 08:03:38;;;;;;;4.15;2.80;;;22.30;99.90;;;;;;5016658;28;20042;-71
2022/06/29 08:06:05;;;;;;;4.10;2.85;;;22.40;99.90;;;;;;5016056;28;20448;-71
2022/06/29 08:08:31;;;;;;;3.92;2.72;;;22.50;99.90;;;;;;5015745;28;20050;-71
2022/06/29 08:10:57;;;;;;;7.95;3.17;;;22.50;99.90;;;;;;5016872;28;20353;-73
2022/06/29 08:13:23;;;;;;;4.13;3.13;;;22.60;99.90;;;;;;5017002;28;20045;-73
2022/06/29 08:15:49;;;;;;;5.72;2.97;;;22.70;99.90;;;;;;5015765;28;20471;-72
2022/06/29 08:18:16;;;;;;;3.95;2.80;;;22.80;99.90;;;;;;5016472;28;20082;-73
2022/06/29 08:20:43;;;;;;;5.28;2.75;;;22.90;99.90;;;;;;5016682;28;20561;-72
2022/06/29 08:23:09;;;;;;;3.25;2.85;;;23.00;99.90;;;;;;5016581;28;20038;-73
2022/06/29 08:25:34;;;;;;;4.43;2.80;;;23.00;99.90;;;;;;5016069;28;20057;-73
2022/06/29 08:28:03;;;;;;;5.40;3.05;;;23.00;99.90;;;;;;5016361;28;20053;-72
2022/06/29 08:30:29;;;;;;;4.15;2.53;;;23.10;99.90;;;;;;5016309;28;20470;-72
2022/06/29 08:32:55;;;;;;;3.20;2.70;;;23.20;99.90;;;;;;5009587;28;20061;-73
2022/06/29 08:35:21;;;;;;;7.82;3.67;;;23.40;99.90;;;;;;4996473;28;20054;-72
2022/06/29 08:37:47;;;;;;;5.43;3.00;;;23.50;99.90;;;;;;4993389;28;20046;-73
2022/06/29 08:40:16;;;;;;;5.38;3.28;;;23.50;99.90;;;;;;4996666;28;20133;-74
2022/06/29 08:42:44;;;;;;;5.45;3.30;;;23.60;99.90;;;;;;4996539;28;20050;-72
2022/06/29 08:45:11;;;;;;;4.55;2.90;;;23.70;99.90;;;;;;4996452;28;20103;-73
2022/06/29 08:47:37;;;;;;;3.60;2.92;;;23.90;99.90;;;;;;4995338;28;20457;-73
2022/06/29 08:50:08;;;;;;;3.53;2.83;;;24.00;99.90;;;;;;4995395;28;20042;-73
2022/06/29 08:52:38;;;;;;;7.30;2.83;;;24.10;99.90;;;;;;4996451;28;20046;-72
2022/06/29 08:55:06;;;;;;;8.55;2.95;;;24.20;99.90;;;;;;4996392;28;20372;-74
2022/06/29 08:57:35;;;;;;;4.57;2.80;;;24.30;99.90;;;;;;4978222;28;20054;-75
2022/06/29 09:00:01;;;;;;;5.60;2.90;;;24.40;99.90;;;;;;4996359;28;20061;-75
2022/06/29 09:02:27;;;;;;;5.72;2.65;;;24.50;99.90;;;;;;4996216;28;20357;-73
2022/06/29 09:04:54;;;;;;;3.15;2.50;;;24.60;99.90;;;;;;4996143;28;20405;-72
2022/06/29 09:07:20;;;;;;;3.05;2.50;;;24.80;99.90;;;;;;4995654;28;20042;-72
2022/06/29 09:10:08;;;;;;;3.38;2.80;;;24.70;99.90;;;;;;4996169;28;20120;-72
2022/06/29 09:12:34;;;;;;;5.60;2.63;;;24.90;99.90;;;;;;4995718;28;20105;-72
2022/06/29 09:15:01;;;;;;;3.42;2.83;;;24.90;99.90;;;;;;4994345;28;20073;-73
2022/06/29 09:17:30;;;;;;;4.15;2.53;;;25.10;99.90;;;;;;4961054;28;20050;-73
2022/06/29 09:19:56;;;;;;;6.40;3.05;;;25.20;99.90;;;;;;4995709;28;20051;-72
2022/06/29 09:22:22;;;;;;;3.78;2.58;;;25.20;99.90;;;;;;4995793;28;20057;-73
2022/06/29 09:24:49;;;;;;;3.90;2.50;;;25.30;99.90;;;;;;4994803;28;20460;-74
2022/06/29 09:27:15;;;;;;;6.55;2.78;;;25.50;99.90;;;;;;4995695;28;20042;-73
2022/06/29 09:29:42;;;;;;;3.83;2.70;;;25.60;99.90;;;;;;4995913;28;20049;-72
2022/06/29 09:32:13;;;;;;;9.30;2.47;;;25.70;99.90;;;;;;4995462;28;20049;-73
2022/06/29 09:34:45;;;;;;;3.42;2.45;;;25.90;99.90;;;;;;5015141;28;20068;-72
2022/06/29 09:37:18;;;;;;;10.55;3.10;;;25.90;99.90;;;;;;4997160;28;20086;-73
2022/06/29 09:39:50;;;;;;;5.85;2.53;;;26.00;99.90;;;;;;5015174;28;20038;-74
2022/06/29 09:42:27;;;;;;;5.38;3.20;;;26.00;99.90;;;;;;5015170;28;20400;-73
2022/06/29 09:44:53;;;;;;;5.78;2.70;;;25.90;99.90;;;;;;5014798;28;20045;-72
2022/06/29 09:47:21;;;;;;;4.60;2.58;;;25.90;99.90;;;;;;5015232;28;20064;-74
2022/06/29 09:49:51;;;;;;;5.57;2.75;;;25.90;99.90;;;;;;5014951;28;20042;-73
2022/06/29 09:52:19;;;;;;;6.68;2.58;;;25.80;99.90;;;;;;5014938;28;20046;-73
2022/06/29 09:54:47;;;;;;;3.55;2.80;;;25.70;99.90;;;;;;5014843;28;20528;-73
2022/06/29 09:57:13;;;;;;;4.63;2.80;;;25.60;99.90;;;;;;5014890;28;20049;-73
2022/06/29 10:02:44;;;;;;;4.45;2.53;;;25.40;99.90;;;;;;5014913;28;20064;-72
2022/06/29 10:05:11;;;;;;;4.63;2.65;;;25.60;99.90;;;;;;5014122;28;20097;-73
2022/06/29 10:07:45;;;;;;;4.00;2.40;;;25.70;99.90;;;;;;5014673;28;20046;-74
2022/06/29 10:10:15;;;;;;;3.30;2.40;;;25.70;99.90;;;;;;5013379;28;20049;-73
2022/06/29 10:15:56;;;;;;;4.22;2.65;;;26.00;98.20;;;;;;5014563;28;20089;-73
2022/06/29 10:18:34;;;;;;;;;;;26.20;98.80;;;;;;5015390;28;20057;-72
2022/06/29 10:21:01;;;;;;;3.35;2.50;;;26.30;98.40;;;;;;5014646;28;19932;-75
2022/06/29 10:23:47;;;;;;;4.45;2.47;;;26.40;99.90;;;;;;5014927;28;20042;-72
2022/06/29 10:26:39;;;;;;;4.78;2.53;;;26.70;99.50;;;;;;5012803;28;20050;-73
2022/06/29 10:29:05;;;;;;;6.22;2.58;;;26.80;99.20;;;;;;5010803;28;20093;-74
2022/06/29 10:31:49;;;;;;;3.08;2.65;;;26.90;98.10;;;;;;5017987;28;20092;-74
2022/06/29 10:34:33;;;;;;;4.40;2.85;;;27.10;98.00;;;;;;5018725;28;20054;-75
2022/06/29 10:37:08;;;;;;;2.75;2.40;;;27.20;97.20;;;;;;5001150;28;20064;-73
2022/06/29 10:39:47;;;;;;;5.22;2.55;;;27.30;96.20;;;;;;5018292;28;20046;-74
2022/06/29 10:45:16;;;;;;;5.28;2.88;;;27.40;95.90;;;;;;5018399;28;20049;-73
2022/06/29 10:47:54;;;;;;;5.30;2.50;;;27.50;95.50;;;;;;5017822;28;20081;-74
2022/06/29 10:50:20;;;;;;;2.58;2.15;;;27.80;96.50;;;;;;5018271;28;20061;-73
2022/06/29 10:52:51;;;;;;;4.35;2.50;;;27.80;96.30;;;;;;5017995;28;20452;-73
2022/06/29 10:55:18;;;;;;;4.78;2.90;;;27.90;95.20;;;;;;5018069;28;20432;-75
2022/06/29 10:57:45;;;;;;;4.35;2.80;;;28.10;95.40;;;;;;5017642;28;20354;-73
2022/06/29 11:00:20;;;;;;;2.75;2.55;;;28.20;95.30;;;;;;5018182;28;20129;-73
2022/06/29 11:02:46;;;;;;;11.15;2.55;;;28.50;95.20;;;;;;5017600;28;20052;-74
2022/06/29 11:05:12;;;;;;;2.55;2.35;;;28.40;92.20;;;;;;5017867;28;20053;-74
2022/06/29 11:13:28;;;;;;;4.00;2.72;;;28.90;88.80;;;;;;5037648;28;20115;-70
2022/06/29 11:15:55;;;;;;;4.88;3.20;;;29.20;86.60;;;;;;5032746;28;20049;-73
2022/06/29 11:18:24;;;;;;;69.68;11.13;;;29.20;84.00;;;;;;5017724;28;20042;-72
2022/06/29 11:20:51;;;;;;;9.10;3.35;;;29.30;82.60;;;;;;5017648;28;20042;-72
2022/06/29 11:23:19;;;;;;;18.35;5.35;;;29.20;80.30;;;;;;5017615;28;20046;-70
2022/06/29 11:25:47;;;;;;;12.20;3.60;;;29.00;79.50;;;;;;5016758;28;20571;-73
2022/06/29 11:28:16;;;;;;;14.02;3.78;;;28.80;78.40;;;;;;5017631;28;20403;-73
2022/06/29 11:30:42;;;;;;;4.75;2.65;;;28.40;79.20;;;;;;5017524;28;20050;-72
2022/06/29 11:33:10;;;;;;;7.72;2.83;;;28.50;78.30;;;;;;5017380;28;20060;-73
2022/06/29 11:35:38;;;;;;;5.13;2.70;;;28.40;82.00;;;;;;5016861;28;20128;-72
2022/06/29 11:38:05;;;;;;;39.65;7.32;;;28.30;80.90;;;;;;5017320;28;20452;-74
2022/06/29 11:40:41;;;;;;;5.18;2.92;;;28.10;79.80;;;;;;5017089;28;20384;-73
2022/06/29 11:43:12;;;;;;;15.75;3.65;;;28.10;80.70;;;;;;5017172;28;20054;-74
2022/06/29 11:45:52;;;;;;;4.82;2.50;;;28.10;84.50;;;;;;4999739;28;20042;-74
2022/06/29 11:48:20;;;;;;;6.60;2.35;;;28.50;81.30;;;;;;5017296;28;20088;-74
2022/06/29 11:50:56;;;;;;;4.80;2.13;;;29.00;80.90;;;;;;5017135;28;20124;-74
2022/06/29 11:53:52;;;;;;;5.47;2.75;;;29.10;75.10;;;;;;5017054;28;20050;-73
2022/06/29 11:56:22;;;;;;;3.53;2.40;;;29.00;76.50;;;;;;5016700;28;20060;-75
2022/06/29 11:58:50;;;;;;;3.50;2.67;;;29.30;79.60;;;;;;5017193;28;20042;-72
2022/06/29 12:01:18;;;;;;;3.50;2.38;;;29.50;78.70;;;;;;5016430;28;20229;-72
2022/06/29 12:03:48;;;;;;;3.03;2.72;;;29.90;80.20;;;;;;5016402;28;20060;-71
2022/06/29 12:06:14;;;;;;;4.07;2.53;;;29.60;75.50;;;;;;5016384;28;20060;-74
2022/06/29 12:08:40;;;;;;;3.10;2.80;;;29.40;73.40;;;;;;4999831;28;20054;-72
2022/06/29 12:11:06;;;;;;;5.30;2.53;;;30.10;77.30;;;;;;5025067;28;20064;-72
2022/06/29 12:13:32;;;;;;;2.75;2.35;;;30.50;76.40;;;;;;5036406;28;20045;-72
2022/06/29 12:15:57;;;;;;;3.28;2.72;;;30.50;71.00;;;;;;5032354;28;20045;-73
2022/06/29 12:18:23;;;;;;;2.85;2.28;;;30.30;69.80;;;;;;4999425;28;20476;-71
2022/06/29 12:20:49;;;;;;;3.40;3.05;;;30.20;69.90;;;;;;4999717;28;20050;-73
2022/06/29 12:23:15;;;;;;;3.75;2.20;;;30.60;70.70;;;;;;5016607;28;20500;-73
2022/06/29 12:25:40;;;;;;;3.95;3.00;;;30.30;67.90;;;;;;5016085;28;20041;-74
2022/06/29 12:28:06;;;;;;;13.80;3.78;;;30.60;69.00;;;;;;5016544;28;20042;-72
2022/06/29 12:30:32;;;;;;;8.77;4.13;;;30.80;67.40;;;;;;4999121;28;20050;-72
2022/06/29 12:32:57;;;;;;;3.08;2.50;;;30.60;67.50;;;;;;5016306;28;20368;-72
2022/06/29 12:35:23;;;;;;;4.15;2.40;;;31.00;69.40;;;;;;5016371;28;20468;-72
2022/06/29 12:37:48;;;;;;;4.88;2.70;;;31.50;70.80;;;;;;5015515;28;20048;-72
2022/06/29 12:40:14;;;;;;;3.90;2.42;;;31.30;69.70;;;;;;4999036;28;20392;-72
2022/06/29 12:42:40;;;;;;;2.60;2.28;;;31.30;67.10;;;;;;5016130;28;20159;-72
2022/06/29 12:45:07;;;;;;;3.53;2.50;;;30.90;64.70;;;;;;5015894;28;20057;-72
2022/06/29 12:47:33;;;;;;;5.95;2.47;;;30.90;64.70;;;;;;5015165;28;20053;-73
2022/06/29 12:50:01;;;;;;;3.33;2.42;;;31.30;65.00;;;;;;5016244;28;20456;-73
2022/06/29 12:52:26;;;;;;;6.07;2.90;;;31.60;66.90;;;;;;5014329;28;20042;-72
2022/06/29 12:54:52;;;;;;;4.25;2.85;;;31.60;65.60;;;;;;5015982;28;20053;-73
2022/06/29 12:57:18;;;;;;;5.97;3.10;;;31.20;65.70;;;;;;5015453;28;20046;-72
2022/06/29 12:59:43;;;;;;;3.92;2.38;;;31.00;66.30;;;;;;5015658;28;20046;-73
2022/06/29 13:02:09;;;;;;;4.78;2.40;;;31.60;66.80;;;;;;5015658;28;20116;-71
2022/06/29 13:04:35;;;;;;;4.43;2.58;;;32.30;67.50;;;;;;5015736;28;20045;-75